createdAt,value
2022-09-26T00:00:31.587Z,100.00
2022-09-26T00:01:39.134Z,100.00
2022-09-26T00:02:43.196Z,100.00
2022-09-26T00:03:58.855Z,100.00
2022-09-26T00:05:02.523Z,100.00
2022-09-26T00:06:08.894Z,100.00
2022-09-26T00:07:12.460Z,100.00
2022-09-26T00:08:16.165Z,100.00
2022-09-26T00:09:21.014Z,100.00
2022-09-26T00:10:24.560Z,100.00
2022-09-26T00:11:33.003Z,100.00
2022-09-26T00:12:36.570Z,100.00
2022-09-26T00:13:42.447Z,100.00
2022-09-26T00:14:46.297Z,100.00
2022-09-26T00:15:49.848Z,100.00
2022-09-26T00:16:54.946Z,100.00
2022-09-26T00:17:58.656Z,100.00
2022-09-26T00:19:03.162Z,100.00
2022-09-26T00:20:07.417Z,100.00
2022-09-26T00:21:14.462Z,100.00
2022-09-26T00:22:18.056Z,100.00
2022-09-26T00:23:21.714Z,100.00
2022-09-26T00:24:25.528Z,100.00
2022-09-26T00:25:29.211Z,100.00
2022-09-26T00:26:35.732Z,100.00
2022-09-26T00:27:39.523Z,100.00
2022-09-26T00:28:43.289Z,100.00
2022-09-26T00:29:47.152Z,100.00
2022-09-26T00:30:50.839Z,100.00
2022-09-26T00:31:54.435Z,100.00
2022-09-26T00:32:58.108Z,100.00
2022-09-26T00:34:02.473Z,100.00
2022-09-26T00:35:06.887Z,100.00
2022-09-26T00:36:10.898Z,100.00
2022-09-26T00:37:14.597Z,100.00
2022-09-26T00:38:19.526Z,100.00
2022-09-26T00:39:23.243Z,100.00
2022-09-26T00:40:28.190Z,100.00
2022-09-26T00:41:31.933Z,100.00
2022-09-26T00:42:35.601Z,100.00
2022-09-26T00:43:43.335Z,100.00
2022-09-26T00:44:54.770Z,100.00
2022-09-26T00:46:24.790Z,100.00
2022-09-26T00:47:45.123Z,100.00
2022-09-26T00:49:24.051Z,100.00
2022-09-26T00:50:37.928Z,100.00
2022-09-26T00:51:47.671Z,100.00
2022-09-26T00:53:03.542Z,100.00
2022-09-26T00:54:12.691Z,100.00
2022-09-26T00:55:21.439Z,100.00
2022-09-26T00:56:36.183Z,100.00
2022-09-26T00:57:49.875Z,100.00
2022-09-26T00:59:17.333Z,100.00
2022-09-26T01:00:21.533Z,100.00
2022-09-26T01:01:25.542Z,100.00
2022-09-26T01:02:29.977Z,100.00
2022-09-26T01:03:35.844Z,100.00
2022-09-26T01:04:42.559Z,100.00
2022-09-26T01:05:47.200Z,100.00
2022-09-26T01:06:51.007Z,100.00
2022-09-26T01:07:57.460Z,100.00
2022-09-26T01:09:09.166Z,100.00
2022-09-26T01:10:13.300Z,100.00
2022-09-26T01:11:17.444Z,100.00
2022-09-26T01:12:23.349Z,100.00
2022-09-26T01:13:28.938Z,100.00
2022-09-26T01:14:34.715Z,100.00
2022-09-26T01:15:39.278Z,100.00
2022-09-26T01:16:49.560Z,100.00
2022-09-26T01:17:53.500Z,100.00
2022-09-26T01:18:57.157Z,100.00
2022-09-26T01:20:40.387Z,100.00
2022-09-26T01:22:14.974Z,100.00
2022-09-26T01:23:56.866Z,100.00
2022-09-26T01:25:28.800Z,100.00
2022-09-26T01:27:04.677Z,100.00
2022-09-26T01:29:06.076Z,100.00
2022-09-26T01:30:19.127Z,100.00
2022-09-26T01:32:11.562Z,100.00
2022-09-26T01:33:36.383Z,100.00
2022-09-26T01:37:31.881Z,100.00
2022-09-26T01:39:10.218Z,100.00
2022-09-26T01:40:58.117Z,100.00
2022-09-26T01:42:33.065Z,100.00
2022-09-26T01:43:57.031Z,100.00
2022-09-26T01:45:28.236Z,100.00
2022-09-26T01:46:51.182Z,100.00
2022-09-26T01:48:21.763Z,100.00
2022-09-26T01:50:16.381Z,100.00
2022-09-26T01:51:48.700Z,100.00
2022-09-26T01:53:06.417Z,100.00
2022-09-26T01:54:19.169Z,100.00
2022-09-26T01:55:36.002Z,100.00
2022-09-26T01:56:42.152Z,100.00
2022-09-26T01:58:16.189Z,100.00
2022-09-26T01:59:39.290Z,100.00
2022-09-26T02:04:04.388Z,100.00
2022-09-26T02:05:27.807Z,100.00
2022-09-26T02:07:12.708Z,100.00
2022-09-26T02:08:38.036Z,100.00
2022-09-26T02:09:59.425Z,100.00
2022-09-26T02:11:12.545Z,100.00
2022-09-26T02:12:32.918Z,100.00
2022-09-26T02:14:03.876Z,100.00
2022-09-26T02:15:14.296Z,100.00
2022-09-26T02:16:41.697Z,100.00
2022-09-26T02:17:54.911Z,100.00
2022-09-26T02:19:15.437Z,100.00
2022-09-26T02:20:31.528Z,100.00
2022-09-26T02:21:34.984Z,100.00
2022-09-26T02:22:39.349Z,100.00
2022-09-26T02:23:43.375Z,100.00
2022-09-26T02:24:47.020Z,100.00
2022-09-26T02:25:51.126Z,100.00
2022-09-26T02:26:55.116Z,100.00
2022-09-26T02:27:58.979Z,100.00
2022-09-26T02:29:02.761Z,100.00
2022-09-26T02:30:07.670Z,100.00
2022-09-26T02:31:16.743Z,100.00
2022-09-26T02:32:30.061Z,100.00
2022-09-26T02:33:34.101Z,100.00
2022-09-26T02:34:37.679Z,100.00
2022-09-26T02:35:54.274Z,100.00
2022-09-26T02:37:01.426Z,100.00
2022-09-26T02:38:05.941Z,100.00
2022-09-26T02:39:11.277Z,100.00
2022-09-26T02:40:14.975Z,100.00
2022-09-26T02:41:59.779Z,100.00
2022-09-26T02:44:02.918Z,100.00
2022-09-26T02:45:36.761Z,100.00
2022-09-26T02:47:00.053Z,100.00
2022-09-26T02:48:16.952Z,100.00
2022-09-26T02:49:36.557Z,100.00
2022-09-26T02:50:47.961Z,100.00
2022-09-26T02:52:09.264Z,100.00
2022-09-26T02:53:57.534Z,100.00
2022-09-26T02:55:24.657Z,100.00
2022-09-26T02:56:31.447Z,100.00
2022-09-26T02:58:03.949Z,100.00
2022-09-26T02:59:14.625Z,100.00
2022-09-26T03:00:32.942Z,100.00
2022-09-26T03:02:04.151Z,100.00
2022-09-26T03:03:53.180Z,100.00
2022-09-26T03:05:27.013Z,100.00
2022-09-26T03:06:39.748Z,100.00
2022-09-26T03:07:56.733Z,100.00
2022-09-26T03:09:02.372Z,100.00
2022-09-26T03:10:11.153Z,100.00
2022-09-26T03:11:24.058Z,100.00
2022-09-26T03:12:32.025Z,100.00
2022-09-26T03:13:39.050Z,100.00
2022-09-26T03:14:46.021Z,100.00
2022-09-26T03:15:56.611Z,100.00
2022-09-26T03:17:03.511Z,100.00
2022-09-26T03:18:13.269Z,100.00
2022-09-26T03:19:35.936Z,100.00
2022-09-26T03:20:40.937Z,100.00
2022-09-26T03:21:45.402Z,100.00
2022-09-26T03:22:49.745Z,100.00
2022-09-26T03:23:53.886Z,100.00
2022-09-26T03:24:59.778Z,100.00
2022-09-26T03:26:11.213Z,100.00
2022-09-26T03:27:17.513Z,100.00
2022-09-26T03:28:20.931Z,100.00
2022-09-26T03:29:24.681Z,100.00
2022-09-26T03:30:29.978Z,100.00
2022-09-26T03:31:33.663Z,100.00
2022-09-26T03:32:37.456Z,100.00
2022-09-26T03:33:41.071Z,100.00
2022-09-26T03:34:45.290Z,100.00
2022-09-26T03:35:48.739Z,100.00
2022-09-26T03:36:52.239Z,100.00
2022-09-26T03:37:56.289Z,100.00
2022-09-26T03:38:59.780Z,100.00
2022-09-26T03:40:09.572Z,100.00
2022-09-26T03:41:13.444Z,100.00
2022-09-26T03:42:17.812Z,100.00
2022-09-26T03:43:24.299Z,100.00
2022-09-26T03:44:27.846Z,100.00
2022-09-26T03:45:37.404Z,100.00
2022-09-26T03:46:40.814Z,100.00
2022-09-26T03:47:44.454Z,100.00
2022-09-26T03:48:49.898Z,100.00
2022-09-26T03:49:54.346Z,100.00
2022-09-26T03:51:10.756Z,100.00
2022-09-26T03:52:14.746Z,100.00
2022-09-26T03:53:18.952Z,100.00
2022-09-26T03:54:22.761Z,100.00
2022-09-26T03:55:26.258Z,100.00
2022-09-26T03:56:29.975Z,100.00
2022-09-26T03:57:33.470Z,100.00
2022-09-26T03:58:38.284Z,100.00
2022-09-26T03:59:41.951Z,100.00
2022-09-26T04:00:45.443Z,100.00
2022-09-26T04:01:49.126Z,100.00
2022-09-26T04:02:53.014Z,100.00
2022-09-26T04:03:57.955Z,100.00
2022-09-26T04:05:01.535Z,100.00
2022-09-26T04:06:11.182Z,100.00
2022-09-26T04:07:14.993Z,100.00
2022-09-26T04:08:18.447Z,100.00
2022-09-26T04:09:22.171Z,100.00
2022-09-26T04:10:27.581Z,100.00
2022-09-26T04:11:30.985Z,100.00
2022-09-26T04:12:35.059Z,100.00
2022-09-26T04:13:51.492Z,100.00
2022-09-26T04:14:56.130Z,100.00
2022-09-26T04:16:03.695Z,100.00
2022-09-26T04:17:07.201Z,100.00
2022-09-26T04:18:10.761Z,100.00
2022-09-26T04:19:15.175Z,100.00
2022-09-26T04:20:18.695Z,100.00
2022-09-26T04:21:22.318Z,100.00
2022-09-26T04:22:26.093Z,100.00
2022-09-26T04:23:32.230Z,100.00
2022-09-26T04:24:35.771Z,100.00
2022-09-26T04:25:39.177Z,100.00
2022-09-26T04:26:44.571Z,100.00
2022-09-26T04:27:48.078Z,100.00
2022-09-26T04:28:55.391Z,100.00
2022-09-26T04:29:59.141Z,100.00
2022-09-26T04:31:06.679Z,100.00
2022-09-26T04:32:10.834Z,100.00
2022-09-26T04:33:14.517Z,100.00
2022-09-26T04:34:18.175Z,100.00
2022-09-26T04:35:21.746Z,100.00
2022-09-26T04:36:25.260Z,100.00
2022-09-26T04:37:28.876Z,100.00
2022-09-26T04:38:35.094Z,100.00
2022-09-26T04:39:38.923Z,100.00
2022-09-26T04:40:43.082Z,100.00
2022-09-26T04:41:46.905Z,100.00
2022-09-26T04:42:50.575Z,100.00
2022-09-26T04:43:56.631Z,100.00
2022-09-26T04:45:00.296Z,100.00
2022-09-26T04:46:24.554Z,100.00
2022-09-26T04:47:31.539Z,100.00
2022-09-26T04:48:36.259Z,100.00
2022-09-26T04:49:40.086Z,100.00
2022-09-26T04:50:43.787Z,100.00
2022-09-26T04:51:47.872Z,100.00
2022-09-26T04:52:51.843Z,100.00
2022-09-26T04:53:56.222Z,100.00
2022-09-26T04:54:59.814Z,100.00
2022-09-26T04:56:03.775Z,100.00
2022-09-26T04:57:07.304Z,100.00
2022-09-26T04:58:11.174Z,100.00
2022-09-26T04:59:14.738Z,100.00
2022-09-26T05:00:18.653Z,100.00
2022-09-26T05:01:23.035Z,100.00
2022-09-26T05:02:26.690Z,100.00
2022-09-26T05:03:30.240Z,100.00
2022-09-26T05:04:34.491Z,100.00
2022-09-26T05:05:40.099Z,100.00
2022-09-26T05:06:44.349Z,100.00
2022-09-26T05:07:47.731Z,100.00
2022-09-26T05:08:51.291Z,100.00
2022-09-26T05:09:56.353Z,100.00
2022-09-26T05:11:01.585Z,100.00
2022-09-26T05:12:05.343Z,100.00
2022-09-26T05:13:10.952Z,100.00
2022-09-26T05:14:16.911Z,100.00
2022-09-26T05:15:21.679Z,100.00
2022-09-26T05:16:25.550Z,100.00
2022-09-26T05:17:29.217Z,100.00
2022-09-26T05:18:33.730Z,100.00
2022-09-26T05:19:37.616Z,100.00
2022-09-26T05:20:48.371Z,100.00
2022-09-26T05:21:52.110Z,100.00
2022-09-26T05:22:59.634Z,100.00
2022-09-26T05:24:21.609Z,100.00
2022-09-26T05:25:46.905Z,100.00
2022-09-26T05:26:52.852Z,100.00
2022-09-26T05:27:56.503Z,100.00
2022-09-26T05:29:07.741Z,100.00
2022-09-26T05:30:13.020Z,100.00
2022-09-26T05:31:17.905Z,100.00
2022-09-26T05:32:22.305Z,100.00
2022-09-26T05:33:25.844Z,100.00
2022-09-26T05:34:29.528Z,100.00
2022-09-26T05:35:36.291Z,100.00
2022-09-26T05:36:43.881Z,100.00
2022-09-26T05:37:47.876Z,100.00
2022-09-26T05:38:52.462Z,100.00
2022-09-26T05:40:15.202Z,100.00
2022-09-26T05:41:20.100Z,100.00
2022-09-26T05:42:24.377Z,100.00
2022-09-26T05:43:31.169Z,100.00
2022-09-26T05:44:34.954Z,100.00
2022-09-26T05:45:39.417Z,100.00
2022-09-26T05:46:44.091Z,100.00
2022-09-26T05:47:48.809Z,100.00
2022-09-26T05:48:52.900Z,100.00
2022-09-26T05:50:00.267Z,100.00
2022-09-26T05:51:12.772Z,100.00
2022-09-26T05:52:16.668Z,100.00
2022-09-26T05:53:20.289Z,100.00
2022-09-26T05:54:24.321Z,100.00
2022-09-26T05:55:30.143Z,100.00
2022-09-26T05:56:37.493Z,100.00
2022-09-26T05:57:50.533Z,100.00
2022-09-26T05:58:55.213Z,100.00
2022-09-26T05:59:58.595Z,100.00
2022-09-26T06:01:11.318Z,100.00
2022-09-26T06:02:18.555Z,100.00
2022-09-26T06:03:24.289Z,100.00
2022-09-26T06:04:29.455Z,100.00
2022-09-26T06:05:36.761Z,100.00
2022-09-26T06:06:40.438Z,100.00
2022-09-26T06:07:46.158Z,100.00
2022-09-26T06:08:50.435Z,100.00
2022-09-26T06:09:54.399Z,100.00
2022-09-26T06:11:04.330Z,100.00
2022-09-26T06:12:09.033Z,100.00
2022-09-26T06:13:15.538Z,100.00
2022-09-26T06:14:19.180Z,100.00
2022-09-26T06:15:24.942Z,100.00
2022-09-26T06:16:29.657Z,100.00
2022-09-26T06:17:33.312Z,100.00
2022-09-26T06:18:38.714Z,100.00
2022-09-26T06:19:42.355Z,100.00
2022-09-26T06:20:45.889Z,100.00
2022-09-26T06:21:49.473Z,100.00
2022-09-26T06:22:55.258Z,100.00
2022-09-26T06:23:59.053Z,100.00
2022-09-26T06:25:02.491Z,100.00
2022-09-26T06:26:09.202Z,100.00
2022-09-26T06:27:15.304Z,100.00
2022-09-26T06:28:18.876Z,100.00
2022-09-26T06:29:22.524Z,100.00
2022-09-26T06:30:27.221Z,100.00
2022-09-26T06:31:31.147Z,100.00
2022-09-26T06:32:36.665Z,100.00
2022-09-26T06:33:41.630Z,100.00
2022-09-26T06:34:46.655Z,100.00
2022-09-26T06:36:07.047Z,100.00
2022-09-26T06:37:10.603Z,100.00
2022-09-26T06:38:17.303Z,100.00
2022-09-26T06:39:34.604Z,100.00
2022-09-26T06:40:38.663Z,100.00
2022-09-26T06:41:42.624Z,100.00
2022-09-26T06:42:46.819Z,100.00
2022-09-26T06:43:50.713Z,100.00
2022-09-26T06:44:55.013Z,100.00
2022-09-26T06:45:59.735Z,100.00
2022-09-26T06:47:13.794Z,100.00
2022-09-26T06:48:24.522Z,100.00
2022-09-26T06:49:29.259Z,100.00
2022-09-26T06:50:33.545Z,100.00
2022-09-26T06:51:38.654Z,100.00
2022-09-26T06:52:44.221Z,100.00
2022-09-26T07:06:00.178Z,99.75
2022-09-26T07:07:04.974Z,99.99
2022-09-26T07:08:09.517Z,99.65
2022-09-26T07:09:13.175Z,99.51
2022-09-26T07:10:19.871Z,99.66
2022-09-26T07:11:38.094Z,99.67
2022-09-26T07:12:49.772Z,99.38
2022-09-26T07:13:53.433Z,99.14
2022-09-26T07:14:59.817Z,99.04
2022-09-26T07:16:03.561Z,99.10
2022-09-26T07:17:08.238Z,98.93
2022-09-26T07:18:12.064Z,98.54
2022-09-26T07:19:17.313Z,98.32
2022-09-26T07:20:21.318Z,98.49
2022-09-26T07:21:25.125Z,98.27
2022-09-26T07:22:29.533Z,98.10
2022-09-26T07:23:33.875Z,97.78
2022-09-26T07:24:37.488Z,97.97
2022-09-26T07:25:44.972Z,98.16
2022-09-26T07:26:48.955Z,98.02
2022-09-26T07:28:01.477Z,97.91
2022-09-26T07:29:17.054Z,97.98
2022-09-26T07:30:21.238Z,97.76
2022-09-26T07:31:24.947Z,97.78
2022-09-26T07:32:31.271Z,97.58
2022-09-26T07:33:34.936Z,97.68
2022-09-26T07:34:38.878Z,97.84
2022-09-26T07:35:44.484Z,97.96
2022-09-26T07:36:48.146Z,97.94
2022-09-26T07:37:53.066Z,97.77
2022-09-26T07:38:57.015Z,97.85
2022-09-26T07:40:01.748Z,97.57
2022-09-26T07:41:06.180Z,97.07
2022-09-26T07:42:14.618Z,96.80
2022-09-26T07:43:20.527Z,96.61
2022-09-26T07:45:20.598Z,96.04
2022-09-26T07:46:12.429Z,95.88
2022-09-26T07:47:36.128Z,95.06
2022-09-26T07:48:58.773Z,94.61
2022-09-26T07:50:13.332Z,95.10
2022-09-26T07:51:16.917Z,94.92
2022-09-26T07:52:22.634Z,95.19
2022-09-26T07:53:27.475Z,94.95
2022-09-26T07:54:31.062Z,95.35
2022-09-26T07:55:54.744Z,95.62
2022-09-26T07:56:58.625Z,95.72
2022-09-26T07:58:02.072Z,95.89
2022-09-26T07:59:06.067Z,95.85
2022-09-26T08:00:14.829Z,95.88
2022-09-26T08:01:18.532Z,95.52
2022-09-26T08:02:30.617Z,95.11
2022-09-26T08:03:35.126Z,94.87
2022-09-26T08:04:39.142Z,94.83
2022-09-26T08:05:42.791Z,94.43
2022-09-26T08:06:47.143Z,94.88
2022-09-26T08:07:51.518Z,95.06
2022-09-26T08:08:56.088Z,94.93
2022-09-26T08:10:02.066Z,94.83
2022-09-26T08:11:12.747Z,94.78
2022-09-26T08:12:18.864Z,95.08
2022-09-26T08:13:22.809Z,95.38
2022-09-26T08:14:26.360Z,95.75
2022-09-26T08:15:29.908Z,95.93
2022-09-26T08:16:33.444Z,95.99
2022-09-26T08:17:38.429Z,96.18
2022-09-26T08:18:41.819Z,96.26
2022-09-26T08:19:45.870Z,95.94
2022-09-26T08:20:49.652Z,95.73
2022-09-26T08:21:53.233Z,96.12
2022-09-26T08:22:57.248Z,95.85
2022-09-26T08:24:02.519Z,96.21
2022-09-26T08:25:07.356Z,96.45
2022-09-26T08:26:11.097Z,96.57
2022-09-26T08:27:15.093Z,96.81
2022-09-26T08:28:19.122Z,97.09
2022-09-26T08:29:24.047Z,97.46
2022-09-26T08:30:27.743Z,97.30
2022-09-26T08:31:31.587Z,97.50
2022-09-26T08:32:35.246Z,97.80
2022-09-26T08:33:40.367Z,97.75
2022-09-26T08:34:45.387Z,97.81
2022-09-26T08:35:51.947Z,97.69
2022-09-26T08:36:55.443Z,97.65
2022-09-26T08:38:03.253Z,97.62
2022-09-26T08:39:07.679Z,97.71
2022-09-26T08:40:15.077Z,97.87
2022-09-26T08:41:55.940Z,98.36
2022-09-26T08:43:31.460Z,98.36
2022-09-26T08:45:30.337Z,98.23
2022-09-26T08:47:02.884Z,98.53
2022-09-26T08:48:53.672Z,98.87
2022-09-26T08:50:37.570Z,99.44
2022-09-26T08:51:48.201Z,99.39
2022-09-26T08:53:01.569Z,99.89
2022-09-26T08:54:13.567Z,99.76
2022-09-26T08:55:25.751Z,100.00
2022-09-26T08:56:44.254Z,100.00
2022-09-26T08:58:00.755Z,100.00
2022-09-26T08:59:14.291Z,100.00
2022-09-26T09:00:26.824Z,100.00
2022-09-26T09:01:37.995Z,100.00
2022-09-26T09:03:00.507Z,100.00
2022-09-26T09:04:36.351Z,100.00
2022-09-26T09:05:46.800Z,100.00
2022-09-26T09:07:06.744Z,100.00
2022-09-26T09:08:39.902Z,100.00
2022-09-26T09:09:43.442Z,100.00
2022-09-26T09:11:10.584Z,100.00
2022-09-26T09:12:24.312Z,100.00
2022-09-26T09:13:40.200Z,100.00
2022-09-26T09:15:25.331Z,100.00
2022-09-26T09:16:58.599Z,100.00
2022-09-26T09:18:30.519Z,100.00
2022-09-26T09:20:43.248Z,100.00
2022-09-26T09:22:15.053Z,100.00
2022-09-26T09:24:13.148Z,100.00
2022-09-26T09:25:55.692Z,100.00
2022-09-26T09:29:49.393Z,100.00
2022-09-26T09:31:09.896Z,100.00
2022-09-26T09:32:21.160Z,100.00
2022-09-26T09:33:37.704Z,100.00
2022-09-26T09:34:50.117Z,100.00
2022-09-26T09:36:11.147Z,100.00
2022-09-26T09:37:24.351Z,100.00
2022-09-26T09:38:32.138Z,100.00
2022-09-26T09:39:44.793Z,100.00
2022-09-26T09:41:02.982Z,100.00
2022-09-26T09:42:24.765Z,100.00
2022-09-26T09:43:47.615Z,100.00
2022-09-26T09:45:05.610Z,100.00
2022-09-26T09:46:37.959Z,100.00
2022-09-26T09:47:41.982Z,100.00
2022-09-26T09:48:48.597Z,100.00
2022-09-26T09:49:52.940Z,100.00
2022-09-26T09:52:02.545Z,100.00
2022-09-26T09:53:25.465Z,100.00
2022-09-26T09:55:16.339Z,100.00
2022-09-26T09:56:56.689Z,100.00
2022-09-26T09:58:07.210Z,100.00
2022-09-26T09:59:29.158Z,100.00
2022-09-26T10:00:41.963Z,100.00
2022-09-26T10:02:00.207Z,100.00
2022-09-26T10:03:51.666Z,100.00
2022-09-26T10:05:19.782Z,100.00
2022-09-26T10:06:45.594Z,100.00
2022-09-26T10:07:58.127Z,100.00
2022-09-26T10:09:36.092Z,100.00
2022-09-26T10:10:55.300Z,100.00
2022-09-26T10:12:00.145Z,100.00
2022-09-26T10:13:06.260Z,100.00
2022-09-26T10:14:28.701Z,100.00
2022-09-26T10:15:36.477Z,100.00
2022-09-26T10:17:10.627Z,100.00
2022-09-26T10:18:25.797Z,100.00
2022-09-26T10:19:43.524Z,100.00
2022-09-26T10:21:28.320Z,100.00
2022-09-26T10:22:45.135Z,100.00
2022-09-26T10:23:52.124Z,100.00
2022-09-26T10:25:16.025Z,100.00
2022-09-26T10:26:34.694Z,100.00
2022-09-26T10:27:50.685Z,100.00
2022-09-26T10:29:00.007Z,100.00
2022-09-26T10:30:32.101Z,100.00
2022-09-26T10:31:42.658Z,100.00
2022-09-26T10:32:55.484Z,100.00
2022-09-26T10:34:21.783Z,100.00
2022-09-26T10:35:40.110Z,100.00
2022-09-26T10:36:43.708Z,100.00
2022-09-26T10:38:06.122Z,100.00
2022-09-26T10:39:44.118Z,100.00
2022-09-26T10:40:59.782Z,100.00
2022-09-26T10:42:15.084Z,100.00
2022-09-26T10:43:28.875Z,100.00
2022-09-26T10:44:35.229Z,100.00
2022-09-26T10:45:39.219Z,100.00
2022-09-26T10:46:46.734Z,100.00
2022-09-26T10:47:52.077Z,100.00
2022-09-26T10:49:02.198Z,100.00
2022-09-26T10:50:14.822Z,100.00
2022-09-26T10:51:24.517Z,100.00
2022-09-26T10:52:34.814Z,100.00
2022-09-26T10:53:41.437Z,100.00
2022-09-26T10:54:57.327Z,100.00
2022-09-26T10:56:11.339Z,100.00
2022-09-26T10:57:25.258Z,100.00
2022-09-26T10:58:30.011Z,100.00
2022-09-26T10:59:40.028Z,100.00
2022-09-26T11:00:49.596Z,100.00
2022-09-26T11:01:57.258Z,100.00
2022-09-26T11:03:01.295Z,100.00
2022-09-26T11:04:42.129Z,100.00
2022-09-26T11:05:57.421Z,100.00
2022-09-26T11:07:02.026Z,100.00
2022-09-26T11:08:10.394Z,100.00
2022-09-26T11:09:20.771Z,100.00
2022-09-26T11:10:32.563Z,100.00
2022-09-26T11:11:40.329Z,100.00
2022-09-26T11:13:00.231Z,100.00
2022-09-26T11:14:10.715Z,100.00
2022-09-26T11:15:15.266Z,100.00
2022-09-26T11:16:22.190Z,100.00
2022-09-26T11:17:48.170Z,100.00
2022-09-26T11:19:01.593Z,100.00
2022-09-26T11:20:09.737Z,100.00
2022-09-26T11:21:56.210Z,100.00
2022-09-26T11:23:18.017Z,99.92
2022-09-26T11:24:54.951Z,99.31
2022-09-26T11:26:19.078Z,99.26
2022-09-26T11:27:47.182Z,99.24
2022-09-26T11:29:04.413Z,98.55
2022-09-26T11:30:20.974Z,98.35
2022-09-26T11:31:30.338Z,97.93
2022-09-26T11:32:41.171Z,98.02
2022-09-26T11:33:45.346Z,97.22
2022-09-26T11:34:48.995Z,96.97
2022-09-26T11:36:18.216Z,96.21
2022-09-26T11:37:45.779Z,95.14
2022-09-26T11:38:58.023Z,94.72
2022-09-26T11:40:46.293Z,94.22
2022-09-26T11:42:15.561Z,93.73
2022-09-26T11:43:53.477Z,93.33
2022-09-26T11:45:01.406Z,92.65
2022-09-26T11:46:55.967Z,92.07
2022-09-26T11:48:46.622Z,91.67
2022-09-26T11:50:25.587Z,91.55
2022-09-26T11:51:50.976Z,90.22
2022-09-26T11:53:36.584Z,90.04
2022-09-26T11:55:04.829Z,89.80
2022-09-26T11:56:32.437Z,89.94
2022-09-26T11:57:51.000Z,89.40
2022-09-26T11:59:27.914Z,89.29
2022-09-26T12:01:03.269Z,88.84
2022-09-26T12:02:40.523Z,87.85
2022-09-26T12:04:08.503Z,87.51
2022-09-26T12:06:01.927Z,87.18
2022-09-26T12:07:53.425Z,86.30
2022-09-26T12:09:38.654Z,86.31
2022-09-26T12:11:01.380Z,85.20
2022-09-26T12:12:41.489Z,84.32
2022-09-26T12:13:59.704Z,84.08
2022-09-26T12:15:56.233Z,83.93
2022-09-26T12:17:36.225Z,83.36
2022-09-26T12:19:10.406Z,83.48
2022-09-26T12:20:47.218Z,83.07
2022-09-26T12:22:29.759Z,82.85
2022-09-26T12:23:45.703Z,82.90
2022-09-26T12:25:11.498Z,82.57
2022-09-26T12:26:29.857Z,82.45
2022-09-26T12:28:12.500Z,82.41
2022-09-26T12:30:01.683Z,82.26
2022-09-26T12:31:26.355Z,82.23
2022-09-26T12:32:52.990Z,82.15
2022-09-26T12:34:39.428Z,82.01
2022-09-26T12:36:06.231Z,82.23
2022-09-26T12:37:33.875Z,82.34
2022-09-26T12:39:19.037Z,82.25
2022-09-26T12:40:31.908Z,82.12
2022-09-26T12:42:00.939Z,82.35
2022-09-26T12:43:52.147Z,82.00
2022-09-26T12:45:28.321Z,81.57
2022-09-26T12:47:33.262Z,80.99
2022-09-26T12:49:20.585Z,80.36
2022-09-26T12:51:04.063Z,80.24
2022-09-26T12:52:46.071Z,80.75
2022-09-26T12:54:33.787Z,80.11
2022-09-26T12:56:07.195Z,79.22
2022-09-26T12:57:38.652Z,78.90
2022-09-26T12:59:18.284Z,79.15
2022-09-26T13:00:23.334Z,79.34
2022-09-26T13:02:03.900Z,79.32
2022-09-26T13:03:43.081Z,79.09
2022-09-26T13:05:31.864Z,78.58
2022-09-26T13:07:17.158Z,78.53
2022-09-26T13:08:40.400Z,77.30
2022-09-26T13:10:15.468Z,77.45
2022-09-26T13:12:00.429Z,77.23
2022-09-26T13:13:32.711Z,77.48
2022-09-26T13:15:32.556Z,77.07
2022-09-26T13:17:15.738Z,77.19
2022-09-26T13:18:35.148Z,77.55
2022-09-26T13:19:52.047Z,77.44
2022-09-26T13:21:05.555Z,77.48
2022-09-26T13:22:35.316Z,77.79
2022-09-26T13:23:52.597Z,77.59
2022-09-26T13:25:11.991Z,77.25
2022-09-26T13:26:31.002Z,77.43
2022-09-26T13:28:15.988Z,77.34
2022-09-26T13:29:37.508Z,77.31
2022-09-26T13:30:50.181Z,77.32
2022-09-26T13:32:18.454Z,77.16
2022-09-26T13:34:16.446Z,77.04
2022-09-26T13:35:27.759Z,76.14
2022-09-26T13:36:35.352Z,76.75
2022-09-26T13:37:47.908Z,76.93
2022-09-26T13:39:18.239Z,76.78
2022-09-26T13:40:39.436Z,76.80
2022-09-26T13:42:17.577Z,76.61
2022-09-26T13:43:47.808Z,76.27
2022-09-26T13:45:29.560Z,75.19
2022-09-26T13:47:15.177Z,75.21
2022-09-26T13:48:38.578Z,74.89
2022-09-26T13:49:52.035Z,74.88
2022-09-26T13:51:41.976Z,74.49
2022-09-26T13:53:04.540Z,74.63
2022-09-26T13:54:55.768Z,74.14
2022-09-26T13:56:44.504Z,73.55
2022-09-26T13:58:09.307Z,73.14
2022-09-26T13:59:12.779Z,72.99
2022-09-26T14:00:25.362Z,72.51
2022-09-26T14:01:36.700Z,72.40
2022-09-26T14:02:43.012Z,72.59
2022-09-26T14:03:47.272Z,72.28
2022-09-26T14:05:03.347Z,72.15
2022-09-26T14:06:24.703Z,72.23
2022-09-26T14:07:58.864Z,71.78
2022-09-26T14:09:24.233Z,71.30
2022-09-26T14:10:27.899Z,71.90
2022-09-26T14:11:51.638Z,71.66
2022-09-26T14:13:08.555Z,71.54
2022-09-26T14:14:18.358Z,71.07
2022-09-26T14:15:28.503Z,70.82
2022-09-26T14:16:34.963Z,70.78
2022-09-26T14:17:44.292Z,71.02
2022-09-26T14:19:04.381Z,71.01
2022-09-26T14:20:27.409Z,70.71
2022-09-26T14:21:33.946Z,70.53
2022-09-26T14:22:52.768Z,70.96
2022-09-26T14:24:20.894Z,70.96
2022-09-26T14:25:46.383Z,71.20
2022-09-26T14:27:25.763Z,70.82
2022-09-26T14:28:35.768Z,71.14
2022-09-26T14:29:39.414Z,71.47
2022-09-26T14:31:24.460Z,71.30
2022-09-26T14:32:36.142Z,71.36
2022-09-26T14:33:40.750Z,71.40
2022-09-26T14:34:56.991Z,71.83
2022-09-26T14:36:33.553Z,71.99
2022-09-26T14:37:43.639Z,71.99
2022-09-26T14:38:50.553Z,72.26
2022-09-26T14:40:00.487Z,72.49
2022-09-26T14:41:05.892Z,72.36
2022-09-26T14:42:27.484Z,72.50
2022-09-26T14:43:32.106Z,72.69
2022-09-26T14:44:37.434Z,72.85
2022-09-26T14:46:02.994Z,73.01
2022-09-26T14:47:16.440Z,73.22
2022-09-26T14:48:36.879Z,73.55
2022-09-26T14:49:40.968Z,73.46
2022-09-26T14:50:54.095Z,73.71
2022-09-26T14:52:08.904Z,73.36
2022-09-26T14:53:47.161Z,73.66
2022-09-26T14:55:01.310Z,73.55
2022-09-26T14:56:16.995Z,73.88
2022-09-26T14:57:32.542Z,73.86
2022-09-26T14:58:38.672Z,73.98
2022-09-26T14:59:43.535Z,73.98
2022-09-26T15:00:49.783Z,74.00
2022-09-26T15:02:18.936Z,74.14
2022-09-26T15:03:24.576Z,74.24
2022-09-26T15:04:33.022Z,74.29
2022-09-26T15:05:40.284Z,74.56
2022-09-26T15:06:50.712Z,74.41
2022-09-26T15:07:56.003Z,74.67
2022-09-26T15:09:09.497Z,74.75
2022-09-26T15:10:20.749Z,74.67
2022-09-26T15:11:44.497Z,74.57
2022-09-26T15:13:11.622Z,74.56
2022-09-26T15:14:44.064Z,74.91
2022-09-26T15:16:27.272Z,75.29
2022-09-26T15:17:39.057Z,75.37
2022-09-26T15:18:50.220Z,75.67
2022-09-26T15:19:59.524Z,75.77
2022-09-26T15:21:27.165Z,75.92
2022-09-26T15:22:32.060Z,75.85
2022-09-26T15:23:54.018Z,76.14
2022-09-26T15:25:21.165Z,76.25
2022-09-26T15:26:33.225Z,76.16
2022-09-26T15:27:37.021Z,76.41
2022-09-26T15:28:40.483Z,76.39
2022-09-26T15:29:54.811Z,76.33
2022-09-26T15:31:28.966Z,76.45
2022-09-26T15:32:33.944Z,76.44
2022-09-26T15:33:39.681Z,76.40
2022-09-26T15:34:43.682Z,76.50
2022-09-26T15:35:54.613Z,76.57
2022-09-26T15:37:00.381Z,76.74
2022-09-26T15:38:12.911Z,76.78
2022-09-26T15:39:31.649Z,76.70
2022-09-26T15:40:36.287Z,76.93
2022-09-26T15:42:04.090Z,77.06
2022-09-26T15:43:10.642Z,77.02
2022-09-26T15:44:26.048Z,77.31
2022-09-26T15:45:50.093Z,77.34
2022-09-26T15:46:53.775Z,77.42
2022-09-26T15:48:03.339Z,77.61
2022-09-26T15:49:14.578Z,77.71
2022-09-26T15:50:45.104Z,78.01
2022-09-26T15:51:55.819Z,78.26
2022-09-26T15:53:29.136Z,78.63
2022-09-26T15:54:33.357Z,78.68
2022-09-26T15:55:57.770Z,79.08
2022-09-26T15:57:06.548Z,78.95
2022-09-26T15:58:21.724Z,79.36
2022-09-26T15:59:41.524Z,79.42
2022-09-26T16:00:53.723Z,79.57
2022-09-26T16:01:57.601Z,79.42
2022-09-26T16:03:27.119Z,79.72